createdAt,value
2023-01-06T00:01:28.756Z,100.00
2023-01-06T00:03:57.688Z,100.00
2023-01-06T00:06:25.006Z,100.00
2023-01-06T00:08:51.755Z,100.00
2023-01-06T00:11:19.194Z,100.00
2023-01-06T00:13:45.928Z,100.00
2023-01-06T00:16:14.559Z,100.00
2023-01-06T00:18:43.415Z,100.00
2023-01-06T00:21:12.819Z,100.00
2023-01-06T00:23:39.951Z,100.00
2023-01-06T00:26:08.955Z,100.00
2023-01-06T00:28:35.913Z,100.00
2023-01-06T00:31:06.510Z,100.00
2023-01-06T00:33:33.354Z,100.00
2023-01-06T00:36:04.959Z,100.00
2023-01-06T00:38:31.791Z,100.00
2023-01-06T00:40:58.430Z,100.00
2023-01-06T00:43:25.061Z,100.00
2023-01-06T00:45:51.926Z,100.00
2023-01-06T00:48:18.713Z,100.00
2023-01-06T00:50:45.405Z,100.00
2023-01-06T00:53:15.684Z,100.00
2023-01-06T00:55:42.438Z,100.00
2023-01-06T00:58:09.155Z,100.00
2023-01-06T01:00:38.209Z,100.00
2023-01-06T01:03:04.899Z,100.00
2023-01-06T01:05:31.797Z,100.00
2023-01-06T01:07:58.481Z,100.00
2023-01-06T01:10:26.767Z,100.00
2023-01-06T01:12:53.564Z,100.00
2023-01-06T01:15:21.704Z,100.00
2023-01-06T01:17:48.757Z,100.00
2023-01-06T01:20:15.503Z,100.00
2023-01-06T01:22:42.323Z,100.00
2023-01-06T01:25:09.714Z,100.00
2023-01-06T01:27:38.879Z,100.00
2023-01-06T01:30:06.681Z,100.00
2023-01-06T01:32:33.716Z,100.00
2023-01-06T01:35:00.413Z,100.00
2023-01-06T01:37:27.349Z,100.00
2023-01-06T01:39:54.039Z,100.00
2023-01-06T01:42:21.643Z,100.00
2023-01-06T01:44:56.955Z,100.00
2023-01-06T01:47:29.707Z,100.00
2023-01-06T01:50:00.164Z,100.00
2023-01-06T01:52:27.890Z,100.00
2023-01-06T01:54:55.947Z,100.00
2023-01-06T01:57:29.605Z,100.00
2023-01-06T01:59:59.416Z,100.00
2023-01-06T02:02:29.642Z,100.00
2023-01-06T02:04:56.649Z,100.00
2023-01-06T02:07:25.987Z,100.00
2023-01-06T02:10:00.198Z,100.00
2023-01-06T02:12:27.083Z,100.00
2023-01-06T02:14:55.344Z,100.00
2023-01-06T02:17:48.817Z,100.00
2023-01-06T02:20:46.750Z,100.00
2023-01-06T02:23:35.848Z,100.00
2023-01-06T02:26:34.429Z,100.00
2023-01-06T02:29:36.448Z,100.00
2023-01-06T02:32:17.037Z,100.00
2023-01-06T02:34:54.511Z,100.00
2023-01-06T02:37:39.944Z,100.00
2023-01-06T02:40:19.751Z,100.00
2023-01-06T02:42:57.652Z,100.00
2023-01-06T02:45:35.591Z,100.00
2023-01-06T02:48:12.208Z,100.00
2023-01-06T02:50:46.730Z,100.00
2023-01-06T02:53:22.613Z,100.00
2023-01-06T02:55:51.503Z,100.00
2023-01-06T02:58:27.344Z,100.00
2023-01-06T03:01:00.358Z,100.00
2023-01-06T03:03:33.608Z,100.00
2023-01-06T03:06:06.662Z,100.00
2023-01-06T03:08:35.123Z,100.00
2023-01-06T03:11:04.917Z,100.00
2023-01-06T03:13:37.744Z,100.00
2023-01-06T03:16:05.415Z,100.00
2023-01-06T03:18:34.804Z,100.00
2023-01-06T03:21:07.439Z,100.00
2023-01-06T03:23:35.196Z,100.00
2023-01-06T03:26:02.253Z,100.00
2023-01-06T03:28:29.076Z,100.00
2023-01-06T03:31:05.138Z,100.00
2023-01-06T03:33:42.386Z,100.00
2023-01-06T03:36:18.492Z,100.00
2023-01-06T03:38:56.456Z,100.00
2023-01-06T03:41:31.956Z,100.00
2023-01-06T03:44:06.433Z,100.00
2023-01-06T03:46:39.843Z,100.00
2023-01-06T03:49:15.093Z,100.00
2023-01-06T03:51:49.068Z,100.00
2023-01-06T03:54:26.809Z,100.00
2023-01-06T03:56:58.686Z,100.00
2023-01-06T03:59:30.260Z,100.00
2023-01-06T04:01:57.992Z,100.00
2023-01-06T04:04:27.711Z,100.00
2023-01-06T04:06:54.447Z,100.00
2023-01-06T04:09:21.101Z,100.00
2023-01-06T04:11:47.874Z,100.00
2023-01-06T04:14:14.573Z,100.00
2023-01-06T04:16:41.284Z,100.00
2023-01-06T04:19:08.291Z,100.00
2023-01-06T04:21:36.518Z,100.00
2023-01-06T04:24:03.299Z,100.00
2023-01-06T04:26:30.162Z,100.00
2023-01-06T04:28:56.982Z,100.00
2023-01-06T04:31:23.761Z,100.00
2023-01-06T04:33:50.504Z,100.00
2023-01-06T04:36:17.498Z,100.00
2023-01-06T04:38:45.570Z,100.00
2023-01-06T04:41:12.753Z,100.00
2023-01-06T04:43:39.851Z,100.00
2023-01-06T04:46:06.687Z,100.00
2023-01-06T04:48:33.455Z,100.00
2023-01-06T04:51:01.715Z,100.00
2023-01-06T04:53:28.402Z,100.00
2023-01-06T04:55:56.601Z,100.00
2023-01-06T04:58:23.345Z,100.00
2023-01-06T05:00:50.063Z,100.00
2023-01-06T05:03:16.983Z,100.00
2023-01-06T05:05:43.704Z,100.00
2023-01-06T05:08:10.298Z,100.00
2023-01-06T05:10:37.019Z,100.00
2023-01-06T05:13:05.428Z,100.00
2023-01-06T05:15:32.170Z,100.00
2023-01-06T05:17:58.910Z,100.00
2023-01-06T05:20:25.604Z,100.00
2023-01-06T05:22:52.555Z,100.00
2023-01-06T05:25:19.274Z,100.00
2023-01-06T05:27:46.001Z,100.00
2023-01-06T05:30:15.759Z,100.00
2023-01-06T05:32:42.679Z,100.00
2023-01-06T05:35:10.762Z,100.00
2023-01-06T05:37:37.365Z,100.00
2023-01-06T05:40:04.528Z,100.00
2023-01-06T05:42:31.250Z,100.00
2023-01-06T05:44:58.524Z,100.00
2023-01-06T05:47:29.249Z,100.00
2023-01-06T05:49:56.107Z,100.00
2023-01-06T05:52:23.188Z,100.00
2023-01-06T05:54:49.968Z,100.00
2023-01-06T05:57:17.725Z,100.00
2023-01-06T05:59:44.329Z,100.00
2023-01-06T06:02:11.056Z,100.00
2023-01-06T06:04:39.506Z,100.00
2023-01-06T06:07:06.244Z,100.00
2023-01-06T06:09:32.921Z,100.00
2023-01-06T06:11:59.730Z,100.00
2023-01-06T06:14:26.619Z,100.00
2023-01-06T06:16:53.364Z,100.00
2023-01-06T06:19:20.448Z,100.00
2023-01-06T06:21:48.557Z,100.00
2023-01-06T06:24:15.507Z,100.00
2023-01-06T06:26:42.375Z,100.00
2023-01-06T06:29:09.146Z,100.00
2023-01-06T06:31:35.902Z,100.00
2023-01-06T06:34:04.347Z,100.00
2023-01-06T06:36:31.692Z,100.00
2023-01-06T06:39:00.822Z,100.00
2023-01-06T06:41:27.664Z,100.00
2023-01-06T06:43:54.380Z,100.00
2023-01-06T06:46:22.054Z,100.00
2023-01-06T06:48:49.034Z,100.00
2023-01-06T06:51:17.709Z,100.00
2023-01-06T06:53:44.773Z,100.00
2023-01-06T06:56:14.095Z,100.00
2023-01-06T06:58:40.804Z,100.00
2023-01-06T07:01:09.243Z,100.00
2023-01-06T07:03:36.098Z,100.00
2023-01-06T07:06:04.330Z,100.00
2023-01-06T07:08:31.066Z,100.00
2023-01-06T07:10:57.821Z,100.00
2023-01-06T07:13:25.967Z,100.00
2023-01-06T07:15:52.735Z,100.00
2023-01-06T07:18:19.595Z,100.00
2023-01-06T07:20:48.351Z,100.00
2023-01-06T07:23:15.515Z,100.00
2023-01-06T07:25:42.216Z,100.00
2023-01-06T07:28:08.926Z,100.00
2023-01-06T07:30:37.683Z,100.00
2023-01-06T07:33:05.004Z,100.00
2023-01-06T07:35:31.981Z,100.00
2023-01-06T07:38:02.963Z,100.00
2023-01-06T07:40:29.731Z,100.00
2023-01-06T07:42:56.470Z,100.00
2023-01-06T07:45:23.283Z,100.00
2023-01-06T07:47:51.492Z,100.00
2023-01-06T07:50:18.106Z,100.00
2023-01-06T07:52:44.724Z,100.00
2023-01-06T07:55:11.875Z,100.00
2023-01-06T07:57:38.617Z,100.00
2023-01-06T08:00:06.381Z,100.00
2023-01-06T08:02:33.224Z,100.00
2023-01-06T08:05:01.367Z,100.00
2023-01-06T08:07:28.118Z,100.00
2023-01-06T08:09:54.796Z,100.00
2023-01-06T08:12:21.517Z,100.00
2023-01-06T08:14:48.257Z,100.00
2023-01-06T08:17:15.045Z,100.00
2023-01-06T08:19:41.752Z,100.00
2023-01-06T08:22:10.089Z,100.00
2023-01-06T08:24:46.078Z,100.00
2023-01-06T08:27:12.922Z,100.00
2023-01-06T08:29:39.799Z,100.00
2023-01-06T08:32:10.787Z,100.00
2023-01-06T08:34:38.236Z,100.00
2023-01-06T08:37:04.972Z,100.00
2023-01-06T08:39:33.152Z,100.00
2023-01-06T08:41:59.979Z,100.00
2023-01-06T08:44:26.720Z,100.00
2023-01-06T08:46:53.491Z,100.00
2023-01-06T08:49:20.248Z,100.00
2023-01-06T08:51:47.041Z,100.00
2023-01-06T08:54:15.067Z,100.00
2023-01-06T08:56:43.429Z,100.00
2023-01-06T08:59:14.199Z,100.00
2023-01-06T09:01:41.876Z,100.00
2023-01-06T09:04:09.853Z,100.00
2023-01-06T09:06:37.277Z,100.00
2023-01-06T09:09:07.039Z,100.00
2023-01-06T09:11:33.830Z,100.00
2023-01-06T09:14:05.065Z,100.00
2023-01-06T09:16:31.786Z,100.00
2023-01-06T09:18:58.391Z,100.00
2023-01-06T09:21:25.421Z,100.00
2023-01-06T09:23:52.379Z,100.00
2023-01-06T09:26:19.802Z,100.00
2023-01-06T09:28:46.488Z,100.00
2023-01-06T09:31:17.965Z,100.00
2023-01-06T09:33:44.829Z,100.00
2023-01-06T09:36:11.452Z,100.00
2023-01-06T09:38:38.247Z,100.00
2023-01-06T09:41:25.543Z,100.00
2023-01-06T09:43:58.548Z,100.00
2023-01-06T09:46:31.244Z,100.00
2023-01-06T09:49:06.994Z,100.00
2023-01-06T09:51:35.539Z,100.00
2023-01-06T09:54:18.451Z,100.00
2023-01-06T09:56:51.160Z,100.00
2023-01-06T09:59:22.456Z,100.00
2023-01-06T10:01:51.100Z,100.00
2023-01-06T10:04:22.555Z,100.00
2023-01-06T10:06:52.215Z,100.00
2023-01-06T10:09:27.416Z,100.00
2023-01-06T10:12:04.487Z,100.00
2023-01-06T10:14:40.589Z,100.00
2023-01-06T10:17:28.802Z,100.00
2023-01-06T10:20:23.177Z,100.00
2023-01-06T10:23:05.211Z,100.00
2023-01-06T10:25:50.407Z,100.00
2023-01-06T10:28:34.020Z,100.00
2023-01-06T10:31:11.284Z,100.00
2023-01-06T10:34:01.921Z,100.00
2023-01-06T10:36:43.217Z,100.00
2023-01-06T10:39:24.028Z,100.00
2023-01-06T10:42:12.088Z,100.00
2023-01-06T10:53:38.820Z,100.00
2023-01-06T10:56:14.147Z,100.00
2023-01-06T10:58:46.364Z,100.00
2023-01-06T11:01:15.333Z,100.00
2023-01-06T11:03:43.236Z,100.00
2023-01-06T11:06:20.216Z,100.00
2023-01-06T11:08:47.380Z,100.00
2023-01-06T11:11:27.629Z,100.00
2023-01-06T11:13:58.009Z,100.00
2023-01-06T11:16:27.529Z,100.00
2023-01-06T11:18:57.078Z,100.00
2023-01-06T11:21:37.973Z,100.00
2023-01-06T11:24:16.033Z,100.00
2023-01-06T11:26:45.482Z,100.00
2023-01-06T11:29:19.235Z,100.00
2023-01-06T11:31:48.272Z,100.00
2023-01-06T11:34:22.081Z,100.00
2023-01-06T11:36:51.018Z,100.00
2023-01-06T11:39:25.276Z,100.00
2023-01-06T11:41:54.202Z,100.00
2023-01-06T11:44:28.610Z,100.00
2023-01-06T11:46:58.033Z,100.00
2023-01-06T11:49:27.944Z,100.00
2023-01-06T11:52:01.943Z,100.00
2023-01-06T11:54:32.981Z,100.00
2023-01-06T11:57:01.800Z,100.00
2023-01-06T11:59:38.595Z,100.00
2023-01-06T12:02:16.057Z,100.00
2023-01-06T12:04:48.351Z,100.00
2023-01-06T12:07:21.886Z,100.00
2023-01-06T12:09:50.535Z,100.00
2023-01-06T12:12:21.284Z,100.00
2023-01-06T12:14:48.286Z,100.00
2023-01-06T12:17:25.422Z,100.00
2023-01-06T12:19:57.740Z,100.00
2023-01-06T12:22:36.603Z,100.00
2023-01-06T12:25:05.175Z,100.00
2023-01-06T12:27:36.617Z,100.00
2023-01-06T12:30:05.996Z,97.34
2023-01-06T12:32:38.587Z,100.00
2023-01-06T12:35:10.167Z,99.85
2023-01-06T12:37:42.763Z,99.74
2023-01-06T12:40:16.356Z,99.89
2023-01-06T12:42:50.364Z,99.39
2023-01-06T12:45:20.532Z,99.36
2023-01-06T12:47:54.142Z,99.24
2023-01-06T12:50:33.267Z,98.99
2023-01-06T12:53:19.713Z,98.34
2023-01-06T12:55:57.391Z,98.51
2023-01-06T12:58:30.911Z,98.38
2023-01-06T13:01:02.264Z,98.48
2023-01-06T13:03:56.368Z,96.37
2023-01-06T13:06:35.782Z,98.44
2023-01-06T13:09:13.003Z,98.85
2023-01-06T13:11:58.610Z,98.94
2023-01-06T13:14:36.560Z,99.00
2023-01-06T13:17:09.106Z,99.21
2023-01-06T13:19:46.479Z,98.61
2023-01-06T13:22:18.032Z,98.82
2023-01-06T13:25:00.408Z,98.85
2023-01-06T13:27:47.511Z,98.83
2023-01-06T13:30:32.054Z,98.97
2023-01-06T13:33:29.123Z,98.66
2023-01-06T13:36:10.173Z,98.77
2023-01-06T13:38:54.110Z,98.82
2023-01-06T13:41:25.580Z,98.64
2023-01-06T13:43:54.121Z,98.00
2023-01-06T13:46:23.528Z,98.72
2023-01-06T13:48:53.504Z,99.26
2023-01-06T13:51:24.018Z,99.08
2023-01-06T13:53:50.700Z,99.19
2023-01-06T13:56:40.412Z,99.21
2023-01-06T13:59:19.680Z,99.41
2023-01-06T14:01:47.007Z,99.64
2023-01-06T14:04:56.539Z,99.48
2023-01-06T14:07:32.701Z,99.55
2023-01-06T14:10:00.600Z,99.59
2023-01-06T14:12:29.209Z,99.65
2023-01-06T14:15:03.751Z,99.47
2023-01-06T14:17:37.826Z,99.37
2023-01-06T14:20:07.091Z,99.10
2023-01-06T14:22:34.345Z,99.43
2023-01-06T14:25:03.961Z,99.10
2023-01-06T14:28:08.137Z,99.07
2023-01-06T14:30:36.284Z,99.09
2023-01-06T14:33:19.875Z,98.87
2023-01-06T14:35:47.539Z,99.23
2023-01-06T14:38:32.443Z,99.01
2023-01-06T14:41:03.790Z,99.14
2023-01-06T14:43:34.523Z,98.81
2023-01-06T14:46:07.808Z,99.11
2023-01-06T14:48:41.168Z,99.38
2023-01-06T14:51:16.188Z,99.20
2023-01-06T14:53:50.444Z,99.59
2023-01-06T14:56:19.691Z,99.80
2023-01-06T14:58:47.950Z,99.81
2023-01-06T15:01:22.492Z,100.00
2023-01-06T15:03:55.494Z,99.99
2023-01-06T15:06:24.459Z,100.00
2023-01-06T15:08:51.571Z,100.00
2023-01-06T15:11:27.747Z,100.00
2023-01-06T15:13:56.026Z,100.00
2023-01-06T15:16:33.688Z,100.00
2023-01-06T15:19:01.418Z,100.00
2023-01-06T15:21:28.287Z,100.00
2023-01-06T15:23:58.448Z,100.00
2023-01-06T15:26:27.720Z,100.00
2023-01-06T15:29:04.215Z,100.00
2023-01-06T15:31:32.723Z,100.00
2023-01-06T15:34:01.245Z,100.00
2023-01-06T15:36:28.419Z,100.00
2023-01-06T15:39:00.286Z,100.00
2023-01-06T15:41:27.197Z,100.00
2023-01-06T15:43:54.186Z,100.00
2023-01-06T15:46:22.689Z,100.00
2023-01-06T15:48:50.856Z,100.00
2023-01-06T15:51:19.829Z,100.00
2023-01-06T15:53:48.415Z,100.00
2023-01-06T15:56:19.751Z,100.00
2023-01-06T15:58:49.205Z,100.00
2023-01-06T16:01:18.438Z,100.00
2023-01-06T16:03:49.804Z,100.00
2023-01-06T16:06:25.862Z,100.00
2023-01-06T16:08:52.686Z,100.00
2023-01-06T16:11:27.931Z,100.00
2023-01-06T16:13:58.639Z,100.00
2023-01-06T16:16:30.605Z,100.00
2023-01-06T16:19:08.114Z,100.00
2023-01-06T16:21:35.101Z,100.00
2023-01-06T16:24:04.576Z,100.00
2023-01-06T16:26:34.278Z,100.00
2023-01-06T16:29:02.525Z,100.00
2023-01-06T16:31:31.738Z,100.00
2023-01-06T16:34:24.346Z,100.00
2023-01-06T16:36:55.404Z,100.00
2023-01-06T16:39:22.085Z,100.00
2023-01-06T16:42:20.316Z,100.00
2023-01-06T16:45:00.891Z,100.00
2023-01-06T16:47:29.626Z,100.00
2023-01-06T16:50:00.887Z,100.00
2023-01-06T16:52:28.187Z,100.00
2023-01-06T16:54:57.060Z,100.00
2023-01-06T16:57:23.981Z,100.00
2023-01-06T16:59:50.747Z,100.00
2023-01-06T17:02:18.010Z,100.00
2023-01-06T17:04:45.916Z,100.00
2023-01-06T17:07:15.295Z,100.00
2023-01-06T17:09:42.733Z,100.00
2023-01-06T17:12:12.622Z,100.00
2023-01-06T17:14:40.015Z,100.00
2023-01-06T17:17:20.678Z,100.00
2023-01-06T17:19:47.639Z,100.00
2023-01-06T17:22:28.553Z,100.00
2023-01-06T17:24:57.167Z,100.00
2023-01-06T17:27:28.563Z,100.00
2023-01-06T17:29:55.815Z,100.00
2023-01-06T17:32:27.662Z,100.00
2023-01-06T17:34:54.414Z,100.00
2023-01-06T17:37:26.196Z,100.00
2023-01-06T17:39:53.127Z,100.00
2023-01-06T17:42:25.893Z,100.00
2023-01-06T17:44:55.348Z,100.00
2023-01-06T17:47:28.499Z,100.00
2023-01-06T17:49:56.727Z,100.00
2023-01-06T17:52:30.129Z,100.00
2023-01-06T17:55:01.555Z,100.00
2023-01-06T17:57:28.328Z,100.00
2023-01-06T17:59:56.462Z,100.00
2023-01-06T18:02:42.979Z,100.00
2023-01-06T18:05:45.823Z,100.00
2023-01-06T18:08:15.253Z,100.00
2023-01-06T18:10:43.367Z,100.00
2023-01-06T18:13:15.854Z,100.00
2023-01-06T18:15:43.517Z,100.00
2023-01-06T18:18:18.255Z,100.00
2023-01-06T18:20:46.994Z,100.00
2023-01-06T18:23:21.928Z,100.00
2023-01-06T18:25:51.339Z,100.00
2023-01-06T18:28:19.143Z,100.00
2023-01-06T18:30:46.879Z,100.00
2023-01-06T18:33:16.412Z,100.00
2023-01-06T18:35:46.159Z,100.00
2023-01-06T18:38:12.946Z,100.00
2023-01-06T18:40:42.587Z,100.00
2023-01-06T18:43:26.133Z,100.00
2023-01-06T18:45:55.278Z,100.00
2023-01-06T18:48:29.188Z,100.00
2023-01-06T18:50:57.811Z,100.00
2023-01-06T18:53:27.736Z,100.00
2023-01-06T18:55:57.954Z,100.00
2023-01-06T18:58:36.090Z,100.00
2023-01-06T19:01:13.068Z,100.00
2023-01-06T19:03:50.524Z,100.00
2023-01-06T19:06:39.069Z,100.00
2023-01-06T19:09:16.517Z,100.00
2023-01-06T19:11:45.543Z,100.00
2023-01-06T19:14:16.859Z,100.00
2023-01-06T19:16:47.301Z,100.00
2023-01-06T19:19:24.606Z,100.00
2023-01-06T19:22:09.988Z,100.00
2023-01-06T19:24:44.934Z,100.00
2023-01-06T19:27:40.740Z,100.00
2023-01-06T19:30:43.787Z,100.00
2023-01-06T19:33:23.354Z,100.00
2023-01-06T19:35:50.978Z,100.00
2023-01-06T19:38:24.744Z,100.00
2023-01-06T19:40:52.264Z,100.00
2023-01-06T19:43:26.028Z,100.00
2023-01-06T19:45:53.038Z,100.00
2023-01-06T19:48:23.396Z,100.00
2023-01-06T19:50:54.100Z,100.00
2023-01-06T19:53:32.493Z,100.00
2023-01-06T19:56:08.884Z,100.00
2023-01-06T19:58:37.314Z,100.00
2023-01-06T20:01:04.323Z,100.00
2023-01-06T20:03:34.714Z,100.00
2023-01-06T20:06:01.532Z,100.00
2023-01-06T20:08:31.349Z,100.00
2023-01-06T20:10:58.354Z,100.00
2023-01-06T20:13:25.086Z,100.00
2023-01-06T20:15:53.371Z,100.00
2023-01-06T20:18:20.288Z,100.00
2023-01-06T20:20:47.274Z,100.00
2023-01-06T20:23:15.694Z,100.00
2023-01-06T20:25:43.519Z,100.00
2023-01-06T20:28:10.314Z,100.00
2023-01-06T20:30:37.232Z,100.00
2023-01-06T20:33:05.712Z,100.00
2023-01-06T20:35:32.485Z,100.00
2023-01-06T20:37:59.584Z,100.00
2023-01-06T20:40:26.410Z,100.00
2023-01-06T20:42:53.178Z,100.00
2023-01-06T20:45:19.992Z,100.00
2023-01-06T20:47:46.845Z,100.00
2023-01-06T20:50:15.280Z,100.00
2023-01-06T20:52:42.452Z,100.00
2023-01-06T20:55:09.546Z,100.00
2023-01-06T20:57:36.306Z,100.00
2023-01-06T21:00:03.933Z,100.00
2023-01-06T21:02:31.836Z,100.00
2023-01-06T21:04:58.879Z,100.00
2023-01-06T21:07:27.265Z,100.00
2023-01-06T21:09:54.134Z,100.00
2023-01-06T21:12:20.982Z,100.00
2023-01-06T21:14:47.758Z,100.00
2023-01-06T21:17:14.660Z,100.00
2023-01-06T21:19:41.417Z,100.00
2023-01-06T21:22:08.446Z,100.00
2023-01-06T21:24:38.469Z,100.00
2023-01-06T21:27:05.197Z,100.00
2023-01-06T21:29:32.068Z,100.00
2023-01-06T21:31:58.754Z,100.00
2023-01-06T21:34:25.472Z,100.00
2023-01-06T21:36:52.204Z,100.00
2023-01-06T21:39:18.973Z,100.00
2023-01-06T21:41:47.389Z,100.00
2023-01-06T21:44:14.092Z,100.00
2023-01-06T21:46:40.911Z,100.00
2023-01-06T21:49:07.631Z,100.00
2023-01-06T21:51:35.485Z,100.00
2023-01-06T21:54:04.369Z,100.00
2023-01-06T21:56:31.504Z,100.00
2023-01-06T21:59:01.381Z,100.00
2023-01-06T22:01:28.338Z,100.00
2023-01-06T22:03:55.173Z,100.00
2023-01-06T22:06:22.525Z,100.00
2023-01-06T22:08:51.843Z,100.00
2023-01-06T22:11:19.163Z,100.00
2023-01-06T22:13:46.218Z,100.00
2023-01-06T22:16:14.485Z,100.00
2023-01-06T22:18:41.425Z,100.00
2023-01-06T22:21:08.196Z,100.00
2023-01-06T22:23:35.942Z,100.00
2023-01-06T22:26:02.686Z,100.00
2023-01-06T22:28:29.594Z,100.00
2023-01-06T22:30:57.018Z,100.00
2023-01-06T22:33:25.438Z,100.00
2023-01-06T22:35:56.567Z,100.00
2023-01-06T22:38:23.292Z,100.00
2023-01-06T22:40:50.073Z,100.00
2023-01-06T22:43:17.163Z,100.00
2023-01-06T22:45:50.383Z,100.00
2023-01-06T22:48:17.675Z,100.00
2023-01-06T22:50:45.808Z,100.00
2023-01-06T22:53:12.789Z,100.00
2023-01-06T22:55:39.714Z,100.00
2023-01-06T22:58:07.568Z,100.00
2023-01-06T23:00:34.305Z,100.00
2023-01-06T23:03:01.211Z,100.00
2023-01-06T23:05:27.949Z,100.00
2023-01-06T23:07:56.010Z,100.00
2023-01-06T23:10:22.763Z,100.00
2023-01-06T23:12:49.483Z,100.00
2023-01-06T23:15:16.247Z,100.00
2023-01-06T23:17:43.101Z,100.00
2023-01-06T23:20:11.156Z,100.00
2023-01-06T23:22:37.903Z,100.00
2023-01-06T23:25:07.809Z,100.00
2023-01-06T23:27:36.757Z,100.00
2023-01-06T23:30:04.244Z,100.00
2023-01-06T23:32:31.033Z,100.00
2023-01-06T23:34:59.185Z,100.00
2023-01-06T23:37:25.993Z,100.00
2023-01-06T23:39:53.123Z,100.00
2023-01-06T23:42:21.318Z,100.00
2023-01-06T23:44:48.084Z,100.00
2023-01-06T23:47:14.904Z,100.00
2023-01-06T23:49:41.743Z,100.00
2023-01-06T23:52:08.446Z,100.00
2023-01-06T23:54:35.294Z,100.00
2023-01-06T23:57:02.002Z,100.00
2023-01-06T23:59:31.699Z,100.00
